Accueil
METAR-TAF:

METAR-TAF

Aéroports :

Aupaluk, Québec, Canada

latitude: 59-17-48N, longitude: 069-35-59W, altitude: 35 m

Observation

Le bulletin a été fait il y a 28 minutes, à 21:00 UTC
Vent 6 kt de sud/sud-est
Température -4°C
Humidité 63%
Pression 1013 hPa
Visibilité: 24.1 km
Ciel couvert à une hauteur de 3700 ft
neige faible

METAR: CYLA 242100Z 15006KT 15SM -SN OVC037 M04/M10 A2990 RMK SC8 LAST STFD OBS/NEXT 251200UTC SLP131

Heure: 17:28 (21:28 UTC)


TAF: absent

Observations et prévisions météorologiques de plus de 4000 aéroports (messages METAR et TAF).

Les stations disponibles sont représentées par des disques jaunes et rouges sur la carte.

Passer la souris dessus pour voir le nom de la station.

Cliquer dessus pour voir les observations et prévisions météorologiques.

Pour changer de carte: cliquez sur les boutons verts avec une croix noire pour zoomer, sur le bouton vert avec un tiret pour effectuer un zoom arrière, ou sur les flèches vertes pour les cartes adjacentes.


METAR-TAF: